sensor_id;sensor_type;location;lat;lon;timestamp;P1;durP1;ratioP1;P2;durP2;ratioP2
26377;SDS011;14078;50.974;6.786;2023-07-08T00:02:07;2.75;;;1.92;;
26377;SDS011;14078;50.974;6.786;2023-07-08T00:04:35;3.28;;;2.10;;
26377;SDS011;14078;50.974;6.786;2023-07-08T00:07:02;2.88;;;2.38;;
26377;SDS011;14078;50.974;6.786;2023-07-08T00:09:29;5.53;;;2.50;;
26377;SDS011;14078;50.974;6.786;2023-07-08T00:11:56;2.55;;;1.83;;
26377;SDS011;14078;50.974;6.786;2023-07-08T00:14:24;3.22;;;2.55;;
26377;SDS011;14078;50.974;6.786;2023-07-08T00:16:51;4.28;;;2.55;;
26377;SDS011;14078;50.974;6.786;2023-07-08T00:19:17;3.03;;;2.67;;
26377;SDS011;14078;50.974;6.786;2023-07-08T00:21:48;3.22;;;2.65;;
26377;SDS011;14078;50.974;6.786;2023-07-08T00:24:16;3.10;;;2.47;;
26377;SDS011;14078;50.974;6.786;2023-07-08T00:26:43;3.65;;;2.90;;
26377;SDS011;14078;50.974;6.786;2023-07-08T00:29:16;4.47;;;2.75;;
26377;SDS011;14078;50.974;6.786;2023-07-08T00:31:44;3.42;;;2.83;;
26377;SDS011;14078;50.974;6.786;2023-07-08T00:34:11;4.00;;;2.70;;
26377;SDS011;14078;50.974;6.786;2023-07-08T00:36:38;4.78;;;3.60;;
26377;SDS011;14078;50.974;6.786;2023-07-08T00:39:08;4.85;;;2.80;;
26377;SDS011;14078;50.974;6.786;2023-07-08T00:41:39;4.68;;;3.10;;
26377;SDS011;14078;50.974;6.786;2023-07-08T00:44:08;4.65;;;2.92;;
26377;SDS011;14078;50.974;6.786;2023-07-08T00:46:40;3.60;;;2.85;;
26377;SDS011;14078;50.974;6.786;2023-07-08T00:49:17;4.53;;;2.75;;
26377;SDS011;14078;50.974;6.786;2023-07-08T00:51:55;5.57;;;3.20;;
26377;SDS011;14078;50.974;6.786;2023-07-08T00:54:22;4.15;;;3.08;;
26377;SDS011;14078;50.974;6.786;2023-07-08T00:56:49;4.07;;;2.67;;
26377;SDS011;14078;50.974;6.786;2023-07-08T00:59:20;4.88;;;2.90;;
26377;SDS011;14078;50.974;6.786;2023-07-08T01:01:50;3.88;;;2.65;;
26377;SDS011;14078;50.974;6.786;2023-07-08T01:04:22;3.30;;;2.60;;
26377;SDS011;14078;50.974;6.786;2023-07-08T01:06:52;4.57;;;2.92;;
26377;SDS011;14078;50.974;6.786;2023-07-08T01:09:23;4.50;;;3.45;;
26377;SDS011;14078;50.974;6.786;2023-07-08T01:11:53;5.65;;;2.88;;
26377;SDS011;14078;50.974;6.786;2023-07-08T01:14:20;3.33;;;2.50;;
26377;SDS011;14078;50.974;6.786;2023-07-08T01:16:49;5.80;;;3.05;;
26377;SDS011;14078;50.974;6.786;2023-07-08T01:19:21;5.50;;;3.47;;
26377;SDS011;14078;50.974;6.786;2023-07-08T01:22:01;7.72;;;3.08;;
26377;SDS011;14078;50.974;6.786;2023-07-08T01:24:29;5.65;;;2.63;;
26377;SDS011;14078;50.974;6.786;2023-07-08T01:26:58;4.97;;;3.38;;
26377;SDS011;14078;50.974;6.786;2023-07-08T01:29:27;3.95;;;2.65;;
26377;SDS011;14078;50.974;6.786;2023-07-08T01:31:54;4.05;;;2.70;;
26377;SDS011;14078;50.974;6.786;2023-07-08T01:34:21;4.63;;;3.00;;
26377;SDS011;14078;50.974;6.786;2023-07-08T01:36:49;3.55;;;3.25;;
26377;SDS011;14078;50.974;6.786;2023-07-08T01:39:21;3.88;;;2.92;;
26377;SDS011;14078;50.974;6.786;2023-07-08T01:41:48;6.00;;;3.53;;
26377;SDS011;14078;50.974;6.786;2023-07-08T01:44:26;3.55;;;2.78;;
26377;SDS011;14078;50.974;6.786;2023-07-08T01:46:54;6.15;;;3.15;;
26377;SDS011;14078;50.974;6.786;2023-07-08T01:49:23;5.43;;;2.90;;
26377;SDS011;14078;50.974;6.786;2023-07-08T01:51:51;4.88;;;3.58;;
26377;SDS011;14078;50.974;6.786;2023-07-08T01:54:19;4.38;;;3.08;;
26377;SDS011;14078;50.974;6.786;2023-07-08T01:56:46;4.70;;;3.22;;
26377;SDS011;14078;50.974;6.786;2023-07-08T01:59:16;3.45;;;2.97;;
26377;SDS011;14078;50.974;6.786;2023-07-08T02:01:43;3.85;;;3.28;;
26377;SDS011;14078;50.974;6.786;2023-07-08T02:04:10;4.15;;;2.85;;
26377;SDS011;14078;50.974;6.786;2023-07-08T02:06:36;4.68;;;3.30;;
26377;SDS011;14078;50.974;6.786;2023-07-08T02:09:03;4.32;;;3.00;;
26377;SDS011;14078;50.974;6.786;2023-07-08T02:11:32;5.63;;;3.70;;
26377;SDS011;14078;50.974;6.786;2023-07-08T02:13:58;5.15;;;3.17;;
26377;SDS011;14078;50.974;6.786;2023-07-08T02:16:25;4.03;;;3.42;;
26377;SDS011;14078;50.974;6.786;2023-07-08T02:18:52;4.63;;;3.42;;
26377;SDS011;14078;50.974;6.786;2023-07-08T02:21:19;5.07;;;3.65;;
26377;SDS011;14078;50.974;6.786;2023-07-08T02:23:48;4.07;;;3.05;;
26377;SDS011;14078;50.974;6.786;2023-07-08T02:26:17;5.03;;;3.28;;
26377;SDS011;14078;50.974;6.786;2023-07-08T02:28:45;4.63;;;3.25;;
26377;SDS011;14078;50.974;6.786;2023-07-08T02:31:12;5.22;;;3.15;;
26377;SDS011;14078;50.974;6.786;2023-07-08T02:33:39;7.47;;;3.38;;
26377;SDS011;14078;50.974;6.786;2023-07-08T02:36:05;7.10;;;3.80;;
26377;SDS011;14078;50.974;6.786;2023-07-08T02:38:32;4.60;;;3.03;;
26377;SDS011;14078;50.974;6.786;2023-07-08T02:40:59;5.13;;;3.53;;
26377;SDS011;14078;50.974;6.786;2023-07-08T02:43:26;3.72;;;3.17;;
26377;SDS011;14078;50.974;6.786;2023-07-08T02:45:54;6.93;;;3.05;;
26377;SDS011;14078;50.974;6.786;2023-07-08T02:48:21;4.80;;;3.15;;
26377;SDS011;14078;50.974;6.786;2023-07-08T02:50:47;4.50;;;3.13;;
26377;SDS011;14078;50.974;6.786;2023-07-08T02:53:14;4.47;;;3.10;;
26377;SDS011;14078;50.974;6.786;2023-07-08T02:55:41;6.53;;;2.92;;
26377;SDS011;14078;50.974;6.786;2023-07-08T02:58:08;6.28;;;2.70;;
26377;SDS011;14078;50.974;6.786;2023-07-08T03:00:35;4.13;;;2.70;;
26377;SDS011;14078;50.974;6.786;2023-07-08T03:03:03;5.60;;;3.70;;
26377;SDS011;14078;50.974;6.786;2023-07-08T03:05:30;5.35;;;3.55;;
26377;SDS011;14078;50.974;6.786;2023-07-08T03:07:58;3.88;;;3.33;;
26377;SDS011;14078;50.974;6.786;2023-07-08T03:10:25;4.03;;;2.55;;
26377;SDS011;14078;50.974;6.786;2023-07-08T03:12:51;3.90;;;2.72;;
26377;SDS011;14078;50.974;6.786;2023-07-08T03:15:18;5.47;;;3.10;;
26377;SDS011;14078;50.974;6.786;2023-07-08T03:17:45;4.18;;;2.97;;
26377;SDS011;14078;50.974;6.786;2023-07-08T03:20:13;3.33;;;2.70;;
26377;SDS011;14078;50.974;6.786;2023-07-08T03:22:40;3.90;;;2.75;;
26377;SDS011;14078;50.974;6.786;2023-07-08T03:25:06;4.45;;;3.15;;
26377;SDS011;14078;50.974;6.786;2023-07-08T03:27:34;4.40;;;3.17;;
26377;SDS011;14078;50.974;6.786;2023-07-08T03:30:00;4.68;;;2.95;;
26377;SDS011;14078;50.974;6.786;2023-07-08T03:32:29;4.13;;;3.50;;
26377;SDS011;14078;50.974;6.786;2023-07-08T03:34:55;3.95;;;3.03;;
26377;SDS011;14078;50.974;6.786;2023-07-08T03:37:23;4.32;;;3.10;;
26377;SDS011;14078;50.974;6.786;2023-07-08T03:39:50;5.07;;;3.03;;
26377;SDS011;14078;50.974;6.786;2023-07-08T03:42:17;5.82;;;4.07;;
26377;SDS011;14078;50.974;6.786;2023-07-08T03:44:43;5.78;;;3.28;;
26377;SDS011;14078;50.974;6.786;2023-07-08T03:47:10;4.88;;;3.53;;
26377;SDS011;14078;50.974;6.786;2023-07-08T03:49:37;4.20;;;3.22;;
26377;SDS011;14078;50.974;6.786;2023-07-08T03:52:04;4.82;;;3.00;;
26377;SDS011;14078;50.974;6.786;2023-07-08T03:54:32;4.15;;;3.35;;
26377;SDS011;14078;50.974;6.786;2023-07-08T03:56:59;4.68;;;3.08;;
26377;SDS011;14078;50.974;6.786;2023-07-08T03:59:26;4.93;;;3.00;;
26377;SDS011;14078;50.974;6.786;2023-07-08T04:01:52;5.07;;;2.88;;
26377;SDS011;14078;50.974;6.786;2023-07-08T04:04:19;6.53;;;3.15;;
26377;SDS011;14078;50.974;6.786;2023-07-08T04:06:46;4.05;;;2.95;;
26377;SDS011;14078;50.974;6.786;2023-07-08T04:09:16;3.28;;;2.50;;
26377;SDS011;14078;50.974;6.786;2023-07-08T04:11:44;4.18;;;2.53;;
26377;SDS011;14078;50.974;6.786;2023-07-08T04:14:10;4.72;;;2.67;;
26377;SDS011;14078;50.974;6.786;2023-07-08T04:16:43;5.50;;;2.72;;
26377;SDS011;14078;50.974;6.786;2023-07-08T04:19:13;6.60;;;2.63;;
26377;SDS011;14078;50.974;6.786;2023-07-08T04:21:41;4.32;;;2.53;;
26377;SDS011;14078;50.974;6.786;2023-07-08T04:24:09;4.22;;;3.00;;
26377;SDS011;14078;50.974;6.786;2023-07-08T04:26:36;4.75;;;3.08;;
26377;SDS011;14078;50.974;6.786;2023-07-08T04:29:05;4.93;;;3.20;;
26377;SDS011;14078;50.974;6.786;2023-07-08T04:31:35;2.63;;;2.10;;
26377;SDS011;14078;50.974;6.786;2023-07-08T04:34:02;4.75;;;2.75;;
26377;SDS011;14078;50.974;6.786;2023-07-08T04:36:29;3.00;;;2.70;;
26377;SDS011;14078;50.974;6.786;2023-07-08T04:38:56;3.88;;;2.67;;
26377;SDS011;14078;50.974;6.786;2023-07-08T04:41:23;6.57;;;3.03;;
26377;SDS011;14078;50.974;6.786;2023-07-08T04:43:51;3.80;;;3.17;;
26377;SDS011;14078;50.974;6.786;2023-07-08T04:46:21;4.65;;;3.13;;
26377;SDS011;14078;50.974;6.786;2023-07-08T04:48:55;3.05;;;2.50;;
26377;SDS011;14078;50.974;6.786;2023-07-08T04:51:25;3.42;;;2.80;;
26377;SDS011;14078;50.974;6.786;2023-07-08T04:53:52;3.72;;;2.55;;
26377;SDS011;14078;50.974;6.786;2023-07-08T04:56:18;4.72;;;2.30;;
26377;SDS011;14078;50.974;6.786;2023-07-08T04:58:45;3.80;;;2.65;;
26377;SDS011;14078;50.974;6.786;2023-07-08T05:01:12;4.00;;;2.65;;
26377;SDS011;14078;50.974;6.786;2023-07-08T05:03:40;5.45;;;2.83;;
26377;SDS011;14078;50.974;6.786;2023-07-08T05:06:06;4.28;;;2.65;;
26377;SDS011;14078;50.974;6.786;2023-07-08T05:08:33;3.90;;;2.78;;
26377;SDS011;14078;50.974;6.786;2023-07-08T05:10:59;4.35;;;2.63;;
26377;SDS011;14078;50.974;6.786;2023-07-08T05:13:26;4.30;;;2.80;;
26377;SDS011;14078;50.974;6.786;2023-07-08T05:15:53;4.18;;;2.60;;
26377;SDS011;14078;50.974;6.786;2023-07-08T05:18:19;3.90;;;2.45;;
26377;SDS011;14078;50.974;6.786;2023-07-08T05:20:51;3.70;;;2.13;;
26377;SDS011;14078;50.974;6.786;2023-07-08T05:23:19;4.78;;;2.25;;
26377;SDS011;14078;50.974;6.786;2023-07-08T05:25:46;2.88;;;2.20;;
26377;SDS011;14078;50.974;6.786;2023-07-08T05:28:13;3.20;;;2.50;;
26377;SDS011;14078;50.974;6.786;2023-07-08T05:30:40;3.90;;;2.45;;
26377;SDS011;14078;50.974;6.786;2023-07-08T05:33:07;2.90;;;2.30;;
26377;SDS011;14078;50.974;6.786;2023-07-08T05:35:34;3.53;;;2.80;;
26377;SDS011;14078;50.974;6.786;2023-07-08T05:38:02;2.70;;;2.50;;
26377;SDS011;14078;50.974;6.786;2023-07-08T05:40:29;2.75;;;2.38;;
26377;SDS011;14078;50.974;6.786;2023-07-08T05:42:55;3.55;;;2.28;;
26377;SDS011;14078;50.974;6.786;2023-07-08T05:45:22;9.40;;;2.83;;
26377;SDS011;14078;50.974;6.786;2023-07-08T05:47:48;3.25;;;2.55;;
26377;SDS011;14078;50.974;6.786;2023-07-08T05:50:15;3.65;;;2.53;;
26377;SDS011;14078;50.974;6.786;2023-07-08T05:52:42;3.28;;;2.45;;
26377;SDS011;14078;50.974;6.786;2023-07-08T05:55:10;2.97;;;2.30;;
26377;SDS011;14078;50.974;6.786;2023-07-08T05:57:36;3.50;;;2.88;;
26377;SDS011;14078;50.974;6.786;2023-07-08T06:00:03;4.03;;;1.95;;
26377;SDS011;14078;50.974;6.786;2023-07-08T06:02:31;2.92;;;2.45;;
26377;SDS011;14078;50.974;6.786;2023-07-08T06:04:58;2.75;;;2.13;;
26377;SDS011;14078;50.974;6.786;2023-07-08T06:07:24;2.88;;;2.00;;
26377;SDS011;14078;50.974;6.786;2023-07-08T06:09:51;2.60;;;2.35;;
26377;SDS011;14078;50.974;6.786;2023-07-08T06:14:49;3.58;;;2.25;;
26377;SDS011;14078;50.974;6.786;2023-07-08T06:17:15;4.60;;;2.83;;
26377;SDS011;14078;50.974;6.786;2023-07-08T06:19:42;3.05;;;2.10;;
26377;SDS011;14078;50.974;6.786;2023-07-08T06:22:09;3.22;;;2.15;;
26377;SDS011;14078;50.974;6.786;2023-07-08T06:24:36;3.33;;;2.30;;
26377;SDS011;14078;50.974;6.786;2023-07-08T06:27:03;3.60;;;2.55;;
26377;SDS011;14078;50.974;6.786;2023-07-08T06:29:32;3.92;;;2.83;;
26377;SDS011;14078;50.974;6.786;2023-07-08T06:34:26;3.20;;;2.25;;
26377;SDS011;14078;50.974;6.786;2023-07-08T06:36:53;2.60;;;2.35;;
26377;SDS011;14078;50.974;6.786;2023-07-08T06:39:19;3.42;;;2.05;;
26377;SDS011;14078;50.974;6.786;2023-07-08T06:41:46;3.67;;;2.35;;
26377;SDS011;14078;50.974;6.786;2023-07-08T06:44:13;2.58;;;2.28;;
26377;SDS011;14078;50.974;6.786;2023-07-08T06:46:41;3.65;;;2.72;;
26377;SDS011;14078;50.974;6.786;2023-07-08T06:49:07;3.83;;;2.65;;
26377;SDS011;14078;50.974;6.786;2023-07-08T06:51:34;2.72;;;2.08;;
26377;SDS011;14078;50.974;6.786;2023-07-08T06:54:01;4.60;;;3.20;;
26377;SDS011;14078;50.974;6.786;2023-07-08T06:56:29;3.13;;;2.67;;
26377;SDS011;14078;50.974;6.786;2023-07-08T06:58:56;5.22;;;3.03;;
26377;SDS011;14078;50.974;6.786;2023-07-08T07:01:23;3.72;;;2.95;;
26377;SDS011;14078;50.974;6.786;2023-07-08T07:03:51;3.35;;;2.95;;
26377;SDS011;14078;50.974;6.786;2023-07-08T07:06:17;3.97;;;3.25;;
26377;SDS011;14078;50.974;6.786;2023-07-08T07:08:44;4.93;;;3.07;;
26377;SDS011;14078;50.974;6.786;2023-07-08T07:11:11;3.95;;;2.92;;
26377;SDS011;14078;50.974;6.786;2023-07-08T07:13:37;3.17;;;2.85;;
26377;SDS011;14078;50.974;6.786;2023-07-08T07:16:04;4.50;;;3.07;;
26377;SDS011;14078;50.974;6.786;2023-07-08T07:18:31;3.50;;;2.90;;
26377;SDS011;14078;50.974;6.786;2023-07-08T07:20:59;3.70;;;3.08;;
26377;SDS011;14078;50.974;6.786;2023-07-08T07:23:25;3.88;;;2.55;;
26377;SDS011;14078;50.974;6.786;2023-07-08T07:25:52;4.05;;;2.78;;
26377;SDS011;14078;50.974;6.786;2023-07-08T07:28:19;5.65;;;3.08;;
26377;SDS011;14078;50.974;6.786;2023-07-08T07:30:46;4.13;;;2.92;;
26377;SDS011;14078;50.974;6.786;2023-07-08T07:33:13;3.92;;;2.85;;
26377;SDS011;14078;50.974;6.786;2023-07-08T07:35:43;4.67;;;3.23;;
26377;SDS011;14078;50.974;6.786;2023-07-08T07:38:13;3.83;;;3.10;;
26377;SDS011;14078;50.974;6.786;2023-07-08T07:40:40;2.95;;;2.63;;
26377;SDS011;14078;50.974;6.786;2023-07-08T07:43:07;3.50;;;2.63;;
26377;SDS011;14078;50.974;6.786;2023-07-08T07:45:34;5.50;;;3.30;;
26377;SDS011;14078;50.974;6.786;2023-07-08T07:48:00;4.40;;;3.08;;
26377;SDS011;14078;50.974;6.786;2023-07-08T07:50:27;2.90;;;2.53;;
26377;SDS011;14078;50.974;6.786;2023-07-08T07:52:54;3.47;;;2.78;;
26377;SDS011;14078;50.974;6.786;2023-07-08T07:55:22;4.55;;;2.90;;
26377;SDS011;14078;50.974;6.786;2023-07-08T07:57:49;3.55;;;2.85;;
26377;SDS011;14078;50.974;6.786;2023-07-08T08:00:15;4.22;;;3.20;;
26377;SDS011;14078;50.974;6.786;2023-07-08T08:02:42;4.78;;;3.20;;
26377;SDS011;14078;50.974;6.786;2023-07-08T08:05:09;4.38;;;2.78;;
26377;SDS011;14078;50.974;6.786;2023-07-08T08:07:36;4.28;;;2.90;;
26377;SDS011;14078;50.974;6.786;2023-07-08T08:10:03;3.42;;;2.85;;
26377;SDS011;14078;50.974;6.786;2023-07-08T08:12:31;3.72;;;2.97;;
26377;SDS011;14078;50.974;6.786;2023-07-08T08:14:58;3.33;;;2.95;;
26377;SDS011;14078;50.974;6.786;2023-07-08T08:17:28;3.70;;;2.83;;
26377;SDS011;14078;50.974;6.786;2023-07-08T08:19:55;5.20;;;3.13;;
26377;SDS011;14078;50.974;6.786;2023-07-08T08:22:21;4.45;;;3.05;;
26377;SDS011;14078;50.974;6.786;2023-07-08T08:24:48;3.97;;;3.37;;
26377;SDS011;14078;50.974;6.786;2023-07-08T08:27:15;3.22;;;2.80;;
26377;SDS011;14078;50.974;6.786;2023-07-08T08:29:43;4.97;;;3.30;;
26377;SDS011;14078;50.974;6.786;2023-07-08T08:32:10;4.68;;;2.83;;
26377;SDS011;14078;50.974;6.786;2023-07-08T08:34:36;3.90;;;2.80;;
26377;SDS011;14078;50.974;6.786;2023-07-08T08:37:03;3.57;;;2.90;;
26377;SDS011;14078;50.974;6.786;2023-07-08T08:39:30;3.85;;;3.25;;
26377;SDS011;14078;50.974;6.786;2023-07-08T08:41:57;3.88;;;2.95;;
26377;SDS011;14078;50.974;6.786;2023-07-08T08:44:26;3.15;;;2.85;;
26377;SDS011;14078;50.974;6.786;2023-07-08T08:47:00;4.07;;;3.05;;
26377;SDS011;14078;50.974;6.786;2023-07-08T08:49:34;4.75;;;3.30;;
26377;SDS011;14078;50.974;6.786;2023-07-08T08:52:07;2.78;;;2.42;;
26377;SDS011;14078;50.974;6.786;2023-07-08T08:54:33;4.07;;;2.72;;
26377;SDS011;14078;50.974;6.786;2023-07-08T08:57:04;5.32;;;2.85;;
26377;SDS011;14078;50.974;6.786;2023-07-08T08:59:42;4.88;;;2.90;;
26377;SDS011;14078;50.974;6.786;2023-07-08T09:02:22;2.90;;;2.60;;
26377;SDS011;14078;50.974;6.786;2023-07-08T09:04:54;3.78;;;2.10;;
26377;SDS011;14078;50.974;6.786;2023-07-08T09:07:24;3.00;;;2.28;;
26377;SDS011;14078;50.974;6.786;2023-07-08T09:09:53;3.50;;;2.30;;
26377;SDS011;14078;50.974;6.786;2023-07-08T09:12:28;3.67;;;2.55;;
26377;SDS011;14078;50.974;6.786;2023-07-08T09:14:56;4.45;;;3.08;;
26377;SDS011;14078;50.974;6.786;2023-07-08T09:17:27;4.22;;;2.15;;
26377;SDS011;14078;50.974;6.786;2023-07-08T09:19:58;3.50;;;2.40;;
26377;SDS011;14078;50.974;6.786;2023-07-08T09:22:34;3.65;;;2.42;;
26377;SDS011;14078;50.974;6.786;2023-07-08T10:12:14;2.47;;;1.73;;
26377;SDS011;14078;50.974;6.786;2023-07-08T10:14:43;2.75;;;2.30;;
26377;SDS011;14078;50.974;6.786;2023-07-08T10:17:12;3.50;;;2.33;;
26377;SDS011;14078;50.974;6.786;2023-07-08T10:19:42;4.05;;;2.20;;
26377;SDS011;14078;50.974;6.786;2023-07-08T10:22:13;3.17;;;2.40;;
26377;SDS011;14078;50.974;6.786;2023-07-08T10:24:55;3.22;;;2.28;;
26377;SDS011;14078;50.974;6.786;2023-07-08T10:27:31;3.75;;;2.45;;
26377;SDS011;14078;50.974;6.786;2023-07-08T10:30:07;3.30;;;2.40;;
26377;SDS011;14078;50.974;6.786;2023-07-08T10:32:44;3.92;;;2.30;;
26377;SDS011;14078;50.974;6.786;2023-07-08T10:35:20;3.97;;;2.30;;
26377;SDS011;14078;50.974;6.786;2023-07-08T10:37:56;2.90;;;2.17;;
26377;SDS011;14078;50.974;6.786;2023-07-08T10:40:39;3.47;;;2.10;;
26377;SDS011;14078;50.974;6.786;2023-07-08T10:43:27;3.28;;;2.08;;
26377;SDS011;14078;50.974;6.786;2023-07-08T10:46:14;2.97;;;2.00;;
26377;SDS011;14078;50.974;6.786;2023-07-08T10:48:54;2.78;;;2.28;;
26377;SDS011;14078;50.974;6.786;2023-07-08T10:51:38;3.55;;;2.67;;
26377;SDS011;14078;50.974;6.786;2023-07-08T10:54:16;3.30;;;2.33;;
26377;SDS011;14078;50.974;6.786;2023-07-08T10:57:08;6.50;;;2.58;;
26377;SDS011;14078;50.974;6.786;2023-07-08T10:59:47;3.22;;;2.20;;
26377;SDS011;14078;50.974;6.786;2023-07-08T11:02:26;3.23;;;2.40;;
26377;SDS011;14078;50.974;6.786;2023-07-08T11:05:19;2.92;;;2.13;;
26377;SDS011;14078;50.974;6.786;2023-07-08T11:07:56;3.88;;;2.30;;
26377;SDS011;14078;50.974;6.786;2023-07-08T11:10:29;2.80;;;2.15;;
26377;SDS011;14078;50.974;6.786;2023-07-08T11:13:01;3.08;;;2.30;;
26377;SDS011;14078;50.974;6.786;2023-07-08T11:15:31;3.40;;;2.30;;
26377;SDS011;14078;50.974;6.786;2023-07-08T11:18:03;2.63;;;2.08;;
26377;SDS011;14078;50.974;6.786;2023-07-08T11:20:38;3.13;;;2.28;;
26377;SDS011;14078;50.974;6.786;2023-07-08T11:23:11;4.53;;;2.17;;
26377;SDS011;14078;50.974;6.786;2023-07-08T11:25:46;3.00;;;2.50;;
26377;SDS011;14078;50.974;6.786;2023-07-08T11:28:18;3.30;;;2.15;;
26377;SDS011;14078;50.974;6.786;2023-07-08T11:30:50;4.95;;;2.30;;
26377;SDS011;14078;50.974;6.786;2023-07-08T11:33:18;3.25;;;2.15;;
26377;SDS011;14078;50.974;6.786;2023-07-08T11:35:51;3.07;;;2.10;;
26377;SDS011;14078;50.974;6.786;2023-07-08T11:38:20;3.00;;;2.00;;
26377;SDS011;14078;50.974;6.786;2023-07-08T11:40:52;3.17;;;1.93;;
26377;SDS011;14078;50.974;6.786;2023-07-08T11:43:23;3.25;;;2.22;;
26377;SDS011;14078;50.974;6.786;2023-07-08T11:45:54;3.03;;;2.10;;
26377;SDS011;14078;50.974;6.786;2023-07-08T11:48:24;2.70;;;1.88;;
26377;SDS011;14078;50.974;6.786;2023-07-08T11:50:54;2.78;;;1.80;;
26377;SDS011;14078;50.974;6.786;2023-07-08T11:53:37;3.35;;;2.10;;
26377;SDS011;14078;50.974;6.786;2023-07-08T11:56:21;3.70;;;2.00;;
26377;SDS011;14078;50.974;6.786;2023-07-08T11:58:50;3.35;;;2.10;;
26377;SDS011;14078;50.974;6.786;2023-07-08T12:01:23;2.55;;;2.00;;
26377;SDS011;14078;50.974;6.786;2023-07-08T12:03:54;4.13;;;2.13;;
26377;SDS011;14078;50.974;6.786;2023-07-08T12:06:40;3.38;;;2.00;;
26377;SDS011;14078;50.974;6.786;2023-07-08T12:09:19;2.50;;;1.63;;
26377;SDS011;14078;50.974;6.786;2023-07-08T12:11:52;3.65;;;2.22;;
26377;SDS011;14078;50.974;6.786;2023-07-08T12:14:21;2.95;;;2.17;;
26377;SDS011;14078;50.974;6.786;2023-07-08T12:16:50;2.28;;;1.85;;
26377;SDS011;14078;50.974;6.786;2023-07-08T12:19:17;3.33;;;1.90;;
26377;SDS011;14078;50.974;6.786;2023-07-08T12:21:46;3.00;;;2.38;;
26377;SDS011;14078;50.974;6.786;2023-07-08T12:24:14;3.35;;;2.20;;
26377;SDS011;14078;50.974;6.786;2023-07-08T12:26:41;4.43;;;2.17;;
26377;SDS011;14078;50.974;6.786;2023-07-08T12:29:11;2.72;;;2.20;;
26377;SDS011;14078;50.974;6.786;2023-07-08T12:31:38;2.95;;;2.00;;
26377;SDS011;14078;50.974;6.786;2023-07-08T12:34:07;4.70;;;2.20;;
26377;SDS011;14078;50.974;6.786;2023-07-08T12:36:38;2.78;;;1.90;;
26377;SDS011;14078;50.974;6.786;2023-07-08T12:39:05;3.00;;;2.15;;
26377;SDS011;14078;50.974;6.786;2023-07-08T12:41:35;2.58;;;1.80;;
26377;SDS011;14078;50.974;6.786;2023-07-08T12:44:02;2.92;;;1.95;;
26377;SDS011;14078;50.974;6.786;2023-07-08T12:46:35;5.70;;;1.70;;
26377;SDS011;14078;50.974;6.786;2023-07-08T12:49:02;6.85;;;2.15;;
26377;SDS011;14078;50.974;6.786;2023-07-08T12:51:28;2.20;;;1.63;;
26377;SDS011;14078;50.974;6.786;2023-07-08T12:53:56;3.58;;;1.90;;
26377;SDS011;14078;50.974;6.786;2023-07-08T12:56:23;2.50;;;1.75;;
26377;SDS011;14078;50.974;6.786;2023-07-08T12:58:51;4.07;;;1.90;;
26377;SDS011;14078;50.974;6.786;2023-07-08T13:01:20;4.25;;;1.58;;
26377;SDS011;14078;50.974;6.786;2023-07-08T13:03:56;6.30;;;2.75;;
26377;SDS011;14078;50.974;6.786;2023-07-08T13:06:28;2.38;;;2.10;;
26377;SDS011;14078;50.974;6.786;2023-07-08T13:08:57;5.93;;;2.00;;
26377;SDS011;14078;50.974;6.786;2023-07-08T13:11:29;2.92;;;2.15;;
26377;SDS011;14078;50.974;6.786;2023-07-08T13:13:56;4.57;;;1.77;;
26377;SDS011;14078;50.974;6.786;2023-07-08T13:16:30;2.65;;;2.10;;
26377;SDS011;14078;50.974;6.786;2023-07-08T13:19:00;2.67;;;2.15;;
26377;SDS011;14078;50.974;6.786;2023-07-08T13:23:55;2.95;;;1.77;;
26377;SDS011;14078;50.974;6.786;2023-07-08T13:26:23;3.40;;;1.92;;
26377;SDS011;14078;50.974;6.786;2023-07-08T13:28:59;3.22;;;1.60;;
26377;SDS011;14078;50.974;6.786;2023-07-08T13:31:31;2.83;;;2.03;;
26377;SDS011;14078;50.974;6.786;2023-07-08T13:34:05;2.72;;;2.05;;
26377;SDS011;14078;50.974;6.786;2023-07-08T13:36:35;2.63;;;1.67;;
26377;SDS011;14078;50.974;6.786;2023-07-08T13:39:05;3.03;;;1.77;;
26377;SDS011;14078;50.974;6.786;2023-07-08T13:41:33;3.08;;;2.10;;
26377;SDS011;14078;50.974;6.786;2023-07-08T13:44:03;2.45;;;1.98;;
26377;SDS011;14078;50.974;6.786;2023-07-08T13:46:34;2.10;;;1.30;;
26377;SDS011;14078;50.974;6.786;2023-07-08T13:49:09;4.68;;;1.85;;
26377;SDS011;14078;50.974;6.786;2023-07-08T13:51:38;2.70;;;1.85;;
26377;SDS011;14078;50.974;6.786;2023-07-08T13:54:12;4.47;;;1.77;;
26377;SDS011;14078;50.974;6.786;2023-07-08T13:56:41;5.60;;;2.40;;
26377;SDS011;14078;50.974;6.786;2023-07-08T13:59:10;3.97;;;2.30;;
26377;SDS011;14078;50.974;6.786;2023-07-08T14:01:41;3.75;;;1.90;;
26377;SDS011;14078;50.974;6.786;2023-07-08T14:04:11;4.40;;;2.28;;
26377;SDS011;14078;50.974;6.786;2023-07-08T14:06:40;3.13;;;2.10;;
26377;SDS011;14078;50.974;6.786;2023-07-08T14:09:10;3.10;;;2.25;;
26377;SDS011;14078;50.974;6.786;2023-07-08T14:11:39;3.10;;;2.03;;
26377;SDS011;14078;50.974;6.786;2023-07-08T14:14:07;2.53;;;2.33;;
26377;SDS011;14078;50.974;6.786;2023-07-08T14:16:35;3.45;;;2.08;;
26377;SDS011;14078;50.974;6.786;2023-07-08T14:19:04;3.28;;;2.25;;
26377;SDS011;14078;50.974;6.786;2023-07-08T14:21:37;3.00;;;1.98;;
26377;SDS011;14078;50.974;6.786;2023-07-08T14:24:08;10.18;;;2.25;;
26377;SDS011;14078;50.974;6.786;2023-07-08T14:26:37;3.08;;;2.55;;
26377;SDS011;14078;50.974;6.786;2023-07-08T14:29:04;5.47;;;3.05;;
26377;SDS011;14078;50.974;6.786;2023-07-08T14:31:31;5.22;;;2.17;;
26377;SDS011;14078;50.974;6.786;2023-07-08T14:34:00;5.22;;;2.30;;
26377;SDS011;14078;50.974;6.786;2023-07-08T14:36:30;3.10;;;2.72;;
26377;SDS011;14078;50.974;6.786;2023-07-08T14:38:58;4.18;;;2.75;;
26377;SDS011;14078;50.974;6.786;2023-07-08T14:41:26;3.40;;;2.58;;
26377;SDS011;14078;50.974;6.786;2023-07-08T14:43:54;3.47;;;2.35;;
26377;SDS011;14078;50.974;6.786;2023-07-08T14:46:21;4.93;;;2.80;;
26377;SDS011;14078;50.974;6.786;2023-07-08T14:48:47;3.55;;;2.75;;
26377;SDS011;14078;50.974;6.786;2023-07-08T14:51:14;3.35;;;2.97;;
26377;SDS011;14078;50.974;6.786;2023-07-08T14:53:41;3.67;;;2.60;;
26377;SDS011;14078;50.974;6.786;2023-07-08T14:56:11;4.07;;;2.92;;
26377;SDS011;14078;50.974;6.786;2023-07-08T14:58:40;4.43;;;2.45;;
26377;SDS011;14078;50.974;6.786;2023-07-08T15:01:12;3.45;;;2.40;;
26377;SDS011;14078;50.974;6.786;2023-07-08T15:03:43;4.30;;;2.17;;
26377;SDS011;14078;50.974;6.786;2023-07-08T15:06:09;3.42;;;3.13;;
26377;SDS011;14078;50.974;6.786;2023-07-08T15:08:36;4.80;;;2.50;;
26377;SDS011;14078;50.974;6.786;2023-07-08T15:11:03;3.78;;;2.33;;
26377;SDS011;14078;50.974;6.786;2023-07-08T15:13:33;4.47;;;2.35;;
26377;SDS011;14078;50.974;6.786;2023-07-08T15:18:27;3.83;;;2.40;;
26377;SDS011;14078;50.974;6.786;2023-07-08T15:20:53;3.25;;;2.60;;
26377;SDS011;14078;50.974;6.786;2023-07-08T15:23:20;3.83;;;2.90;;
26377;SDS011;14078;50.974;6.786;2023-07-08T15:25:47;6.70;;;2.58;;
26377;SDS011;14078;50.974;6.786;2023-07-08T15:28:15;3.45;;;2.47;;
26377;SDS011;14078;50.974;6.786;2023-07-08T15:30:45;3.65;;;2.67;;
26377;SDS011;14078;50.974;6.786;2023-07-08T15:33:12;4.18;;;2.80;;
26377;SDS011;14078;50.974;6.786;2023-07-08T15:35:41;3.30;;;2.67;;
26377;SDS011;14078;50.974;6.786;2023-07-08T15:38:08;4.88;;;2.47;;
26377;SDS011;14078;50.974;6.786;2023-07-08T15:40:35;2.90;;;2.50;;
26377;SDS011;14078;50.974;6.786;2023-07-08T15:43:04;3.10;;;2.30;;
26377;SDS011;14078;50.974;6.786;2023-07-08T15:45:38;2.72;;;2.28;;
26377;SDS011;14078;50.974;6.786;2023-07-08T15:48:07;2.58;;;2.30;;
26377;SDS011;14078;50.974;6.786;2023-07-08T15:50:38;3.55;;;2.30;;
26377;SDS011;14078;50.974;6.786;2023-07-08T15:53:05;3.90;;;2.50;;
26377;SDS011;14078;50.974;6.786;2023-07-08T15:55:34;5.28;;;2.95;;
26377;SDS011;14078;50.974;6.786;2023-07-08T15:58:04;2.67;;;2.30;;